sensor_id;sensor_type;location;lat;lon;timestamp;pressure;altitude;pressure_sealevel;temperature;humidity
70690;BME280;58267;51.156;17.044;2024-03-29T00:01:07;98809.32;;;11.46;35.53
70690;BME280;58267;51.156;17.044;2024-03-29T00:03:32;98815.59;;;11.87;35.35
70690;BME280;58267;51.156;17.044;2024-03-29T00:05:58;98815.03;;;12.05;35.32
70690;BME280;58267;51.156;17.044;2024-03-29T00:08:23;98824.59;;;11.62;35.90
70690;BME280;58267;51.156;17.044;2024-03-29T00:10:48;98828.84;;;11.07;36.37
70690;BME280;58267;51.156;17.044;2024-03-29T00:13:15;98832.61;;;11.67;35.90
70690;BME280;58267;51.156;17.044;2024-03-29T00:15:40;98837.67;;;11.23;36.32
70690;BME280;58267;51.156;17.044;2024-03-29T00:18:05;98840.13;;;11.17;36.42
70690;BME280;58267;51.156;17.044;2024-03-29T00:20:30;98853.57;;;10.82;36.86
70690;BME280;58267;51.156;17.044;2024-03-29T00:22:56;98856.53;;;11.32;36.63
70690;BME280;58267;51.156;17.044;2024-03-29T00:25:21;98860.23;;;11.21;36.75
70690;BME280;58267;51.156;17.044;2024-03-29T00:27:46;98866.16;;;11.00;36.94
70690;BME280;58267;51.156;17.044;2024-03-29T00:30:12;98871.91;;;11.16;36.78
70690;BME280;58267;51.156;17.044;2024-03-29T00:32:37;98877.17;;;11.14;36.71
70690;BME280;58267;51.156;17.044;2024-03-29T00:35:03;98886.34;;;10.55;37.14
70690;BME280;58267;51.156;17.044;2024-03-29T00:37:28;98888.90;;;10.66;36.98
70690;BME280;58267;51.156;17.044;2024-03-29T00:39:53;98903.01;;;10.31;37.71
70690;BME280;58267;51.156;17.044;2024-03-29T00:42:20;98902.72;;;10.69;36.89
70690;BME280;58267;51.156;17.044;2024-03-29T00:44:46;98908.12;;;11.01;37.01
70690;BME280;58267;51.156;17.044;2024-03-29T00:47:11;98918.74;;;10.70;37.36
70690;BME280;58267;51.156;17.044;2024-03-29T00:49:36;98926.34;;;10.49;37.40
70690;BME280;58267;51.156;17.044;2024-03-29T00:52:02;98934.01;;;10.75;37.23
70690;BME280;58267;51.156;17.044;2024-03-29T00:54:27;98940.33;;;10.82;37.05
70690;BME280;58267;51.156;17.044;2024-03-29T00:56:52;98945.41;;;10.53;37.41
70690;BME280;58267;51.156;17.044;2024-03-29T00:59:17;98950.86;;;10.36;37.68
70690;BME280;58267;51.156;17.044;2024-03-29T01:01:44;98952.93;;;10.78;36.98
70690;BME280;58267;51.156;17.044;2024-03-29T01:04:08;98958.35;;;10.34;37.55
70690;BME280;58267;51.156;17.044;2024-03-29T01:06:33;98963.69;;;10.12;37.80
70690;BME280;58267;51.156;17.044;2024-03-29T01:08:59;98970.72;;;10.07;37.91
70690;BME280;58267;51.156;17.044;2024-03-29T01:11:24;98975.40;;;10.01;37.92
70690;BME280;58267;51.156;17.044;2024-03-29T01:13:50;98976.32;;;10.16;37.76
70690;BME280;58267;51.156;17.044;2024-03-29T01:16:15;98981.64;;;10.59;37.15
70690;BME280;58267;51.156;17.044;2024-03-29T01:18:40;98985.52;;;10.16;37.61
70690;BME280;58267;51.156;17.044;2024-03-29T01:21:06;98985.46;;;9.84;38.08
70690;BME280;58267;51.156;17.044;2024-03-29T01:23:31;98985.97;;;9.98;37.92
70690;BME280;58267;51.156;17.044;2024-03-29T01:25:56;98987.49;;;10.00;37.93
70690;BME280;58267;51.156;17.044;2024-03-29T01:28:21;98991.50;;;9.90;38.08
70690;BME280;58267;51.156;17.044;2024-03-29T01:30:52;98996.48;;;9.72;38.27
70690;BME280;58267;51.156;17.044;2024-03-29T01:33:12;98992.51;;;9.48;38.58
70690;BME280;58267;51.156;17.044;2024-03-29T01:35:37;98990.45;;;9.98;37.95
70690;BME280;58267;51.156;17.044;2024-03-29T01:38:02;98991.21;;;10.37;37.34
70690;BME280;58267;51.156;17.044;2024-03-29T01:40:27;98992.89;;;10.36;37.30
70690;BME280;58267;51.156;17.044;2024-03-29T01:42:53;98995.07;;;10.04;37.67
70690;BME280;58267;51.156;17.044;2024-03-29T01:45:18;98997.67;;;10.17;37.48
70690;BME280;58267;51.156;17.044;2024-03-29T01:47:43;98996.34;;;10.55;36.98
70690;BME280;58267;51.156;17.044;2024-03-29T01:50:09;98995.72;;;10.40;37.14
70690;BME280;58267;51.156;17.044;2024-03-29T01:52:34;98991.46;;;10.49;36.92
70690;BME280;58267;51.156;17.044;2024-03-29T01:54:59;98994.61;;;10.61;36.77
70690;BME280;58267;51.156;17.044;2024-03-29T01:57:25;98999.07;;;11.00;36.26
70690;BME280;58267;51.156;17.044;2024-03-29T01:59:50;98999.03;;;10.86;36.10
70690;BME280;58267;51.156;17.044;2024-03-29T02:02:15;98996.39;;;10.32;36.40
70690;BME280;58267;51.156;17.044;2024-03-29T02:04:41;98996.97;;;10.70;36.28
70690;BME280;58267;51.156;17.044;2024-03-29T02:07:06;98999.88;;;11.06;35.82
70690;BME280;58267;51.156;17.044;2024-03-29T02:09:31;98998.51;;;10.73;36.44
70690;BME280;58267;51.156;17.044;2024-03-29T02:11:56;99000.27;;;10.70;36.21
70690;BME280;58267;51.156;17.044;2024-03-29T02:14:21;98995.38;;;11.00;35.78
70690;BME280;58267;51.156;17.044;2024-03-29T02:16:46;99002.53;;;10.57;36.32
70690;BME280;58267;51.156;17.044;2024-03-29T02:19:12;99003.13;;;10.42;36.17
70690;BME280;58267;51.156;17.044;2024-03-29T02:21:40;99001.66;;;10.87;36.15
70690;BME280;58267;51.156;17.044;2024-03-29T02:24:06;99007.07;;;10.84;35.83
70690;BME280;58267;51.156;17.044;2024-03-29T02:26:27;99010.16;;;10.90;35.86
70690;BME280;58267;51.156;17.044;2024-03-29T02:28:53;99012.79;;;10.39;36.53
70690;BME280;58267;51.156;17.044;2024-03-29T02:31:18;99018.19;;;10.91;36.17
70690;BME280;58267;51.156;17.044;2024-03-29T02:33:45;99021.15;;;10.87;36.29
70690;BME280;58267;51.156;17.044;2024-03-29T02:36:10;99024.85;;;10.44;36.78
70690;BME280;58267;51.156;17.044;2024-03-29T02:38:35;99037.51;;;10.62;36.62
70690;BME280;58267;51.156;17.044;2024-03-29T02:41:00;99040.54;;;10.58;36.68
70690;BME280;58267;51.156;17.044;2024-03-29T02:43:26;99038.30;;;10.11;37.27
70690;BME280;58267;51.156;17.044;2024-03-29T02:45:52;99047.84;;;9.86;37.60
70690;BME280;58267;51.156;17.044;2024-03-29T02:48:17;99049.70;;;9.74;37.85
70690;BME280;58267;51.156;17.044;2024-03-29T02:50:42;99050.40;;;10.13;37.28
70690;BME280;58267;51.156;17.044;2024-03-29T02:53:07;99052.66;;;10.08;37.37
70690;BME280;58267;51.156;17.044;2024-03-29T02:55:32;99050.46;;;10.19;37.19
70690;BME280;58267;51.156;17.044;2024-03-29T02:57:58;99049.54;;;9.95;37.53
70690;BME280;58267;51.156;17.044;2024-03-29T03:00:23;99051.93;;;10.14;37.23
70690;BME280;58267;51.156;17.044;2024-03-29T03:02:48;99049.34;;;10.34;36.67
70690;BME280;58267;51.156;17.044;2024-03-29T03:05:14;99048.72;;;10.09;36.93
70690;BME280;58267;51.156;17.044;2024-03-29T03:07:39;99049.68;;;10.79;36.36
70690;BME280;58267;51.156;17.044;2024-03-29T03:10:05;99046.24;;;10.82;36.21
70690;BME280;58267;51.156;17.044;2024-03-29T03:12:31;99051.15;;;10.85;35.93
70690;BME280;58267;51.156;17.044;2024-03-29T03:14:56;99056.71;;;10.54;36.16
70690;BME280;58267;51.156;17.044;2024-03-29T03:17:21;99054.04;;;10.62;36.31
70690;BME280;58267;51.156;17.044;2024-03-29T03:19:47;99056.66;;;10.99;35.90
70690;BME280;58267;51.156;17.044;2024-03-29T03:22:12;99063.82;;;10.48;36.39
70690;BME280;58267;51.156;17.044;2024-03-29T03:24:37;99068.29;;;10.55;36.36
70690;BME280;58267;51.156;17.044;2024-03-29T03:27:03;99062.35;;;10.19;36.46
70690;BME280;58267;51.156;17.044;2024-03-29T03:29:28;99067.81;;;10.34;36.53
70690;BME280;58267;51.156;17.044;2024-03-29T03:31:54;99063.42;;;10.43;36.11
70690;BME280;58267;51.156;17.044;2024-03-29T03:34:19;99059.71;;;10.75;35.95
70690;BME280;58267;51.156;17.044;2024-03-29T03:36:44;99054.59;;;10.79;35.84
70690;BME280;58267;51.156;17.044;2024-03-29T03:39:09;99047.82;;;10.75;35.93
70690;BME280;58267;51.156;17.044;2024-03-29T03:41:34;99049.73;;;10.76;35.95
70690;BME280;58267;51.156;17.044;2024-03-29T03:44:00;99049.40;;;10.44;35.93
70690;BME280;58267;51.156;17.044;2024-03-29T03:46:25;99047.80;;;10.84;35.79
70690;BME280;58267;51.156;17.044;2024-03-29T03:48:50;99050.53;;;11.09;35.45
70690;BME280;58267;51.156;17.044;2024-03-29T03:51:15;99051.11;;;10.40;35.96
70690;BME280;58267;51.156;17.044;2024-03-29T03:53:40;99057.49;;;10.81;35.69
70690;BME280;58267;51.156;17.044;2024-03-29T03:56:06;99062.44;;;10.94;35.54
70690;BME280;58267;51.156;17.044;2024-03-29T03:58:31;99064.91;;;11.14;35.26
70690;BME280;58267;51.156;17.044;2024-03-29T04:00:56;99070.14;;;10.68;35.50
70690;BME280;58267;51.156;17.044;2024-03-29T04:03:21;99077.62;;;11.14;35.25
70690;BME280;58267;51.156;17.044;2024-03-29T04:05:46;99085.72;;;11.23;35.15
70690;BME280;58267;51.156;17.044;2024-03-29T04:08:12;99096.53;;;11.18;35.12
70690;BME280;58267;51.156;17.044;2024-03-29T04:10:38;99105.52;;;10.50;35.89
70690;BME280;58267;51.156;17.044;2024-03-29T04:13:02;99102.42;;;10.47;36.03
70690;BME280;58267;51.156;17.044;2024-03-29T04:15:27;99098.61;;;10.30;36.18
70690;BME280;58267;51.156;17.044;2024-03-29T04:17:53;99097.57;;;9.85;36.77
70690;BME280;58267;51.156;17.044;2024-03-29T04:20:18;99096.96;;;10.48;35.93
70690;BME280;58267;51.156;17.044;2024-03-29T04:22:43;99094.49;;;9.69;36.84
70690;BME280;58267;51.156;17.044;2024-03-29T04:25:08;99095.58;;;9.55;36.93
70690;BME280;58267;51.156;17.044;2024-03-29T04:27:34;99105.18;;;9.86;36.65
70690;BME280;58267;51.156;17.044;2024-03-29T04:29:59;99109.83;;;10.13;36.56
70690;BME280;58267;51.156;17.044;2024-03-29T04:32:24;99112.52;;;9.96;36.42
70690;BME280;58267;51.156;17.044;2024-03-29T04:34:50;99115.97;;;9.41;37.18
70690;BME280;58267;51.156;17.044;2024-03-29T04:37:15;99120.40;;;9.86;36.85
70690;BME280;58267;51.156;17.044;2024-03-29T04:39:40;99129.96;;;10.02;36.65
70690;BME280;58267;51.156;17.044;2024-03-29T04:42:05;99123.06;;;9.90;36.44
70690;BME280;58267;51.156;17.044;2024-03-29T04:44:30;99120.01;;;9.89;36.37
70690;BME280;58267;51.156;17.044;2024-03-29T04:46:55;99122.09;;;9.87;36.37
70690;BME280;58267;51.156;17.044;2024-03-29T04:49:22;99118.65;;;10.35;36.14
70690;BME280;58267;51.156;17.044;2024-03-29T04:51:46;99129.64;;;9.71;36.53
70690;BME280;58267;51.156;17.044;2024-03-29T04:54:11;99132.41;;;9.66;36.89
70690;BME280;58267;51.156;17.044;2024-03-29T04:56:36;99137.91;;;9.83;36.59
70690;BME280;58267;51.156;17.044;2024-03-29T04:59:02;99140.07;;;10.14;36.57
70690;BME280;58267;51.156;17.044;2024-03-29T05:01:27;99127.05;;;9.90;36.24
70690;BME280;58267;51.156;17.044;2024-03-29T05:03:52;99127.83;;;10.05;35.95
70690;BME280;58267;51.156;17.044;2024-03-29T05:06:17;99136.57;;;10.41;35.54
70690;BME280;58267;51.156;17.044;2024-03-29T05:08:42;99134.82;;;10.26;35.40
70690;BME280;58267;51.156;17.044;2024-03-29T05:11:08;99133.11;;;10.32;35.49
70690;BME280;58267;51.156;17.044;2024-03-29T05:13:33;99140.04;;;10.50;35.27
70690;BME280;58267;51.156;17.044;2024-03-29T05:15:58;99139.08;;;10.56;35.14
70690;BME280;58267;51.156;17.044;2024-03-29T05:18:23;99136.78;;;10.61;34.78
70690;BME280;58267;51.156;17.044;2024-03-29T05:20:49;99133.70;;;10.40;35.17
70690;BME280;58267;51.156;17.044;2024-03-29T05:23:14;99135.45;;;10.72;34.88
70690;BME280;58267;51.156;17.044;2024-03-29T05:25:39;99141.41;;;10.86;34.72
70690;BME280;58267;51.156;17.044;2024-03-29T05:28:06;99137.79;;;10.96;34.61
70690;BME280;58267;51.156;17.044;2024-03-29T05:30:31;99136.45;;;10.95;34.58
70690;BME280;58267;51.156;17.044;2024-03-29T05:32:55;99141.08;;;11.06;34.46
70690;BME280;58267;51.156;17.044;2024-03-29T05:35:20;99139.55;;;10.85;34.54
70690;BME280;58267;51.156;17.044;2024-03-29T05:37:46;99141.31;;;10.66;34.75
70690;BME280;58267;51.156;17.044;2024-03-29T05:40:12;99143.66;;;11.17;34.31
70690;BME280;58267;51.156;17.044;2024-03-29T05:42:37;99146.41;;;11.12;34.32
70690;BME280;58267;51.156;17.044;2024-03-29T05:45:02;99146.67;;;11.42;33.99
70690;BME280;58267;51.156;17.044;2024-03-29T05:47:27;99137.70;;;11.26;34.16
70690;BME280;58267;51.156;17.044;2024-03-29T05:49:53;99131.33;;;11.30;33.96
70690;BME280;58267;51.156;17.044;2024-03-29T05:52:18;99139.66;;;11.15;33.72
70690;BME280;58267;51.156;17.044;2024-03-29T05:54:43;99148.16;;;11.60;33.55
70690;BME280;58267;51.156;17.044;2024-03-29T05:57:08;99148.11;;;11.34;33.54
70690;BME280;58267;51.156;17.044;2024-03-29T05:59:33;99154.50;;;11.40;33.48
70690;BME280;58267;51.156;17.044;2024-03-29T06:01:58;99145.39;;;10.83;34.19
70690;BME280;58267;51.156;17.044;2024-03-29T06:04:24;99143.90;;;11.75;33.66
70690;BME280;58267;51.156;17.044;2024-03-29T06:06:49;99143.68;;;10.83;34.41
70690;BME280;58267;51.156;17.044;2024-03-29T06:09:15;99146.21;;;11.06;33.92
70690;BME280;58267;51.156;17.044;2024-03-29T06:11:40;99152.30;;;11.49;33.71
70690;BME280;58267;51.156;17.044;2024-03-29T06:14:05;99147.53;;;11.36;33.83
70690;BME280;58267;51.156;17.044;2024-03-29T06:16:30;99148.60;;;11.47;33.43
70690;BME280;58267;51.156;17.044;2024-03-29T06:18:55;99150.38;;;11.24;33.60
70690;BME280;58267;51.156;17.044;2024-03-29T06:21:20;99157.28;;;11.26;33.40
70690;BME280;58267;51.156;17.044;2024-03-29T06:23:46;99160.38;;;11.58;33.18
70690;BME280;58267;51.156;17.044;2024-03-29T06:26:11;99163.05;;;11.49;33.20
70690;BME280;58267;51.156;17.044;2024-03-29T06:28:36;99162.35;;;12.00;32.71
70690;BME280;58267;51.156;17.044;2024-03-29T06:31:01;99163.31;;;11.54;32.99
70690;BME280;58267;51.156;17.044;2024-03-29T06:33:27;99158.63;;;11.37;33.10
70690;BME280;58267;51.156;17.044;2024-03-29T06:35:55;99151.85;;;11.38;33.27
70690;BME280;58267;51.156;17.044;2024-03-29T06:38:17;99148.33;;;11.61;32.89
70690;BME280;58267;51.156;17.044;2024-03-29T06:40:42;99147.33;;;11.77;32.68
70690;BME280;58267;51.156;17.044;2024-03-29T06:43:07;99153.24;;;11.96;32.37
70690;BME280;58267;51.156;17.044;2024-03-29T06:45:33;99154.97;;;12.22;32.18
70690;BME280;58267;51.156;17.044;2024-03-29T06:47:58;99147.76;;;12.06;32.19
70690;BME280;58267;51.156;17.044;2024-03-29T06:50:23;99147.58;;;12.52;31.65
70690;BME280;58267;51.156;17.044;2024-03-29T06:52:48;99156.37;;;12.82;31.38
70690;BME280;58267;51.156;17.044;2024-03-29T06:55:14;99158.99;;;13.22;31.01
70690;BME280;58267;51.156;17.044;2024-03-29T06:57:39;99157.16;;;13.06;31.09
70690;BME280;58267;51.156;17.044;2024-03-29T07:00:05;99158.78;;;13.30;31.12
70690;BME280;58267;51.156;17.044;2024-03-29T07:02:29;99169.89;;;13.47;30.80
70690;BME280;58267;51.156;17.044;2024-03-29T07:04:55;99177.72;;;13.31;30.72
70690;BME280;58267;51.156;17.044;2024-03-29T07:07:20;99173.39;;;13.56;30.57
70690;BME280;58267;51.156;17.044;2024-03-29T07:09:45;99177.48;;;13.42;30.66
70690;BME280;58267;51.156;17.044;2024-03-29T07:12:10;99174.50;;;13.69;30.29
70690;BME280;58267;51.156;17.044;2024-03-29T07:14:35;99177.59;;;13.88;30.26
70690;BME280;58267;51.156;17.044;2024-03-29T07:17:01;99180.69;;;13.97;30.04
70690;BME280;58267;51.156;17.044;2024-03-29T07:19:27;99184.85;;;13.81;30.01
70690;BME280;58267;51.156;17.044;2024-03-29T07:21:52;99191.11;;;13.60;29.93
70690;BME280;58267;51.156;17.044;2024-03-29T07:24:17;99186.20;;;13.72;30.12
70690;BME280;58267;51.156;17.044;2024-03-29T07:26:42;99187.38;;;13.70;30.29
70690;BME280;58267;51.156;17.044;2024-03-29T07:29:07;99194.92;;;13.95;29.90
70690;BME280;58267;51.156;17.044;2024-03-29T07:31:33;99195.78;;;13.98;29.94
70690;BME280;58267;51.156;17.044;2024-03-29T07:33:58;99205.27;;;14.08;29.93
70690;BME280;58267;51.156;17.044;2024-03-29T07:36:23;99210.23;;;13.70;30.01
70690;BME280;58267;51.156;17.044;2024-03-29T07:38:48;99211.73;;;13.94;30.02
70690;BME280;58267;51.156;17.044;2024-03-29T07:41:13;99211.58;;;14.24;29.68
70690;BME280;58267;51.156;17.044;2024-03-29T07:43:39;99207.94;;;14.11;29.39
70690;BME280;58267;51.156;17.044;2024-03-29T07:46:04;99199.86;;;14.13;29.18
70690;BME280;58267;51.156;17.044;2024-03-29T07:48:29;99195.90;;;14.42;29.01
70690;BME280;58267;51.156;17.044;2024-03-29T07:50:54;99197.80;;;14.40;28.76
70690;BME280;58267;51.156;17.044;2024-03-29T07:53:19;99197.88;;;13.82;28.64
70690;BME280;58267;51.156;17.044;2024-03-29T07:55:45;99201.08;;;14.17;28.54
70690;BME280;58267;51.156;17.044;2024-03-29T07:58:10;99209.81;;;14.20;28.50
70690;BME280;58267;51.156;17.044;2024-03-29T08:00:39;99219.09;;;14.60;28.24
70690;BME280;58267;51.156;17.044;2024-03-29T08:03:01;99228.17;;;14.26;28.60
70690;BME280;58267;51.156;17.044;2024-03-29T08:05:26;99235.96;;;14.53;28.55
70690;BME280;58267;51.156;17.044;2024-03-29T08:07:51;99235.42;;;14.58;28.35
70690;BME280;58267;51.156;17.044;2024-03-29T08:10:16;99237.98;;;14.85;27.94
70690;BME280;58267;51.156;17.044;2024-03-29T08:12:42;99239.15;;;14.58;27.99
70690;BME280;58267;51.156;17.044;2024-03-29T08:15:07;99235.58;;;14.31;27.97
70690;BME280;58267;51.156;17.044;2024-03-29T08:17:32;99241.55;;;14.49;28.00
70690;BME280;58267;51.156;17.044;2024-03-29T08:19:57;99242.51;;;14.05;28.24
70690;BME280;58267;51.156;17.044;2024-03-29T08:22:22;99243.77;;;14.73;27.97
70690;BME280;58267;51.156;17.044;2024-03-29T08:24:47;99242.15;;;14.85;27.80
70690;BME280;58267;51.156;17.044;2024-03-29T08:27:13;99243.62;;;15.02;27.54
70690;BME280;58267;51.156;17.044;2024-03-29T08:29:38;99240.56;;;15.14;27.64
70690;BME280;58267;51.156;17.044;2024-03-29T08:32:04;99237.92;;;15.07;27.19
70690;BME280;58267;51.156;17.044;2024-03-29T08:34:28;99239.83;;;15.23;26.87
70690;BME280;58267;51.156;17.044;2024-03-29T08:36:53;99244.83;;;15.07;26.75
70690;BME280;58267;51.156;17.044;2024-03-29T08:39:19;99249.28;;;15.08;26.66
70690;BME280;58267;51.156;17.044;2024-03-29T08:41:44;99250.21;;;15.29;26.45
70690;BME280;58267;51.156;17.044;2024-03-29T08:44:09;99240.89;;;15.13;26.71
70690;BME280;58267;51.156;17.044;2024-03-29T08:46:34;99237.74;;;14.86;26.25
70690;BME280;58267;51.156;17.044;2024-03-29T08:48:59;99239.05;;;15.57;26.19
70690;BME280;58267;51.156;17.044;2024-03-29T08:51:24;99234.44;;;15.06;26.16
70690;BME280;58267;51.156;17.044;2024-03-29T08:53:50;99229.66;;;15.87;26.07
70690;BME280;58267;51.156;17.044;2024-03-29T08:56:15;99232.17;;;15.89;25.28
70690;BME280;58267;51.156;17.044;2024-03-29T08:58:40;99227.91;;;15.11;25.45
70690;BME280;58267;51.156;17.044;2024-03-29T09:01:05;99226.46;;;15.42;25.39
70690;BME280;58267;51.156;17.044;2024-03-29T09:03:30;99225.91;;;15.44;25.53
70690;BME280;58267;51.156;17.044;2024-03-29T09:05:56;99224.80;;;15.76;25.64
70690;BME280;58267;51.156;17.044;2024-03-29T09:08:21;99229.49;;;15.11;25.34
70690;BME280;58267;51.156;17.044;2024-03-29T09:10:46;99228.38;;;15.75;26.29
70690;BME280;58267;51.156;17.044;2024-03-29T09:13:12;99227.84;;;15.18;25.23
70690;BME280;58267;51.156;17.044;2024-03-29T09:15:37;99224.17;;;15.37;25.18
70690;BME280;58267;51.156;17.044;2024-03-29T09:18:02;99227.68;;;15.51;25.57
70690;BME280;58267;51.156;17.044;2024-03-29T09:20:27;99228.28;;;15.93;25.21
70690;BME280;58267;51.156;17.044;2024-03-29T09:22:52;99215.70;;;16.02;24.78
70690;BME280;58267;51.156;17.044;2024-03-29T09:25:18;99209.47;;;16.38;24.55
70690;BME280;58267;51.156;17.044;2024-03-29T09:27:45;99205.17;;;16.36;24.07
70690;BME280;58267;51.156;17.044;2024-03-29T09:30:10;99207.37;;;16.03;24.30
70690;BME280;58267;51.156;17.044;2024-03-29T09:32:34;99208.27;;;16.27;24.24
70690;BME280;58267;51.156;17.044;2024-03-29T09:34:59;99210.79;;;16.54;24.15
70690;BME280;58267;51.156;17.044;2024-03-29T09:37:24;99210.87;;;17.17;23.73
70690;BME280;58267;51.156;17.044;2024-03-29T09:39:50;99201.38;;;17.41;29.23
70690;BME280;58267;51.156;17.044;2024-03-29T09:42:16;99201.40;;;17.38;25.01
70690;BME280;58267;51.156;17.044;2024-03-29T09:44:44;99186.01;;;17.77;24.63
70690;BME280;58267;51.156;17.044;2024-03-29T09:47:07;99190.75;;;18.23;23.17
70690;BME280;58267;51.156;17.044;2024-03-29T09:49:33;99197.36;;;17.13;24.28
70690;BME280;58267;51.156;17.044;2024-03-29T09:51:59;99191.14;;;17.45;24.22
70690;BME280;58267;51.156;17.044;2024-03-29T09:54:24;99191.60;;;17.54;23.08
70690;BME280;58267;51.156;17.044;2024-03-29T09:56:50;99196.00;;;17.89;23.66
70690;BME280;58267;51.156;17.044;2024-03-29T09:59:14;99187.10;;;18.40;25.46
70690;BME280;58267;51.156;17.044;2024-03-29T10:01:40;99186.25;;;18.24;23.30
70690;BME280;58267;51.156;17.044;2024-03-29T10:04:06;99191.41;;;17.62;22.48
70690;BME280;58267;51.156;17.044;2024-03-29T10:06:34;99180.96;;;18.76;22.88
70690;BME280;58267;51.156;17.044;2024-03-29T10:08:56;99176.20;;;18.65;23.20
70690;BME280;58267;51.156;17.044;2024-03-29T10:11:22;99170.52;;;19.01;22.49
70690;BME280;58267;51.156;17.044;2024-03-29T10:13:48;99169.71;;;19.10;22.25
70690;BME280;58267;51.156;17.044;2024-03-29T10:16:13;99172.01;;;18.99;21.29
70690;BME280;58267;51.156;17.044;2024-03-29T10:18:41;99177.58;;;18.17;21.42
70690;BME280;58267;51.156;17.044;2024-03-29T10:21:05;99171.95;;;18.07;22.29
70690;BME280;58267;51.156;17.044;2024-03-29T10:23:31;99173.27;;;18.27;22.01
70690;BME280;58267;51.156;17.044;2024-03-29T10:25:55;99172.92;;;18.32;21.97
70690;BME280;58267;51.156;17.044;2024-03-29T10:28:20;99169.80;;;18.32;22.10
70690;BME280;58267;51.156;17.044;2024-03-29T10:30:46;99164.71;;;18.80;21.59
70690;BME280;58267;51.156;17.044;2024-03-29T10:33:12;99157.16;;;18.07;21.77
70690;BME280;58267;51.156;17.044;2024-03-29T10:35:36;99162.03;;;18.46;22.87
70690;BME280;58267;51.156;17.044;2024-03-29T10:38:03;99158.66;;;18.69;21.52
70690;BME280;58267;51.156;17.044;2024-03-29T10:40:26;99142.55;;;18.95;22.06
70690;BME280;58267;51.156;17.044;2024-03-29T10:42:52;99135.93;;;19.16;22.66
70690;BME280;58267;51.156;17.044;2024-03-29T10:45:17;99127.81;;;18.78;22.37
70690;BME280;58267;51.156;17.044;2024-03-29T10:47:42;99121.80;;;18.88;22.44
70690;BME280;58267;51.156;17.044;2024-03-29T10:50:09;99107.68;;;18.93;21.24
70690;BME280;58267;51.156;17.044;2024-03-29T10:52:32;99105.83;;;18.78;20.51
70690;BME280;58267;51.156;17.044;2024-03-29T10:54:58;99103.69;;;19.28;22.24
70690;BME280;58267;51.156;17.044;2024-03-29T10:57:24;99103.75;;;19.96;19.18
70690;BME280;58267;51.156;17.044;2024-03-29T10:59:54;99101.64;;;19.45;20.91
70690;BME280;58267;51.156;17.044;2024-03-29T11:02:17;99110.04;;;19.46;20.93
70690;BME280;58267;51.156;17.044;2024-03-29T11:04:40;99105.71;;;18.93;19.98
70690;BME280;58267;51.156;17.044;2024-03-29T11:07:07;99099.57;;;18.90;20.10
70690;BME280;58267;51.156;17.044;2024-03-29T11:09:31;99101.61;;;19.74;20.32
70690;BME280;58267;51.156;17.044;2024-03-29T11:11:54;99093.35;;;19.77;20.66
70690;BME280;58267;51.156;17.044;2024-03-29T11:14:23;99094.46;;;19.73;21.22
70690;BME280;58267;51.156;17.044;2024-03-29T11:16:44;99097.10;;;20.24;20.36
70690;BME280;58267;51.156;17.044;2024-03-29T11:19:09;99101.17;;;19.39;19.52
70690;BME280;58267;51.156;17.044;2024-03-29T11:21:34;99096.01;;;20.23;18.95
70690;BME280;58267;51.156;17.044;2024-03-29T11:24:04;99102.52;;;20.20;18.96
70690;BME280;58267;51.156;17.044;2024-03-29T11:26:25;99101.87;;;20.42;19.61
70690;BME280;58267;51.156;17.044;2024-03-29T11:28:52;99090.27;;;20.93;19.60
70690;BME280;58267;51.156;17.044;2024-03-29T11:31:15;99082.18;;;20.88;20.12
70690;BME280;58267;51.156;17.044;2024-03-29T11:33:45;99086.50;;;20.42;19.41
70690;BME280;58267;51.156;17.044;2024-03-29T11:36:10;99093.78;;;20.86;18.21
70690;BME280;58267;51.156;17.044;2024-03-29T11:38:33;99102.34;;;20.29;18.82
70690;BME280;58267;51.156;17.044;2024-03-29T11:41:01;99106.23;;;21.29;19.34
70690;BME280;58267;51.156;17.044;2024-03-29T11:43:21;99105.83;;;21.28;19.78
70690;BME280;58267;51.156;17.044;2024-03-29T11:45:49;99104.46;;;21.56;17.47
70690;BME280;58267;51.156;17.044;2024-03-29T11:48:14;99110.51;;;21.31;18.66
70690;BME280;58267;51.156;17.044;2024-03-29T11:50:36;99103.98;;;21.10;18.18
70690;BME280;58267;51.156;17.044;2024-03-29T11:53:03;99097.44;;;21.57;19.46
70690;BME280;58267;51.156;17.044;2024-03-29T11:55:26;99091.14;;;21.59;18.56
70690;BME280;58267;51.156;17.044;2024-03-29T11:57:52;99093.65;;;22.13;19.74
70690;BME280;58267;51.156;17.044;2024-03-29T12:00:17;99089.51;;;22.10;18.60
70690;BME280;58267;51.156;17.044;2024-03-29T12:02:42;99088.33;;;21.79;18.10
70690;BME280;58267;51.156;17.044;2024-03-29T12:05:08;99093.97;;;21.63;18.26
70690;BME280;58267;51.156;17.044;2024-03-29T12:07:32;99093.12;;;21.96;18.70
70690;BME280;58267;51.156;17.044;2024-03-29T12:09:57;99085.56;;;22.27;17.53
70690;BME280;58267;51.156;17.044;2024-03-29T12:12:22;99080.46;;;22.16;17.84
70690;BME280;58267;51.156;17.044;2024-03-29T12:14:48;99061.94;;;22.13;18.20
70690;BME280;58267;51.156;17.044;2024-03-29T12:17:13;99067.10;;;22.39;17.33
70690;BME280;58267;51.156;17.044;2024-03-29T12:19:38;99064.86;;;21.81;17.35
70690;BME280;58267;51.156;17.044;2024-03-29T12:22:03;99060.62;;;22.49;16.91
70690;BME280;58267;51.156;17.044;2024-03-29T12:24:28;99061.60;;;22.58;17.35
70690;BME280;58267;51.156;17.044;2024-03-29T12:26:53;99053.19;;;22.96;17.25
70690;BME280;58267;51.156;17.044;2024-03-29T12:29:18;99042.78;;;22.33;17.53
70690;BME280;58267;51.156;17.044;2024-03-29T12:31:44;99040.48;;;22.26;17.76
70690;BME280;58267;51.156;17.044;2024-03-29T12:34:09;99043.36;;;21.89;17.59
70690;BME280;58267;51.156;17.044;2024-03-29T12:36:34;99033.58;;;22.07;17.25
70690;BME280;58267;51.156;17.044;2024-03-29T12:38:59;99022.73;;;22.55;17.47